createdAt,value
2018-01-04T00:00:53.736Z,0.00
2018-01-04T00:01:53.737Z,0.00
2018-01-04T00:03:47.453Z,0.00
2018-01-04T00:04:47.457Z,0.00
2018-01-04T00:06:40.371Z,0.00
2018-01-04T00:07:40.363Z,0.00
2018-01-04T00:09:33.493Z,0.00
2018-01-04T00:10:33.482Z,0.00
2018-01-04T00:12:26.411Z,0.00
2018-01-04T00:13:26.425Z,0.00
2018-01-04T00:15:19.297Z,0.00
2018-01-04T00:16:19.313Z,0.00
2018-01-04T00:18:12.238Z,0.00
2018-01-04T00:19:12.226Z,0.00
2018-01-04T00:21:05.829Z,0.00
2018-01-04T00:22:05.807Z,0.00
2018-01-04T00:23:58.746Z,0.00
2018-01-04T00:24:58.724Z,0.00
2018-01-04T00:26:51.807Z,0.00
2018-01-04T00:27:51.645Z,0.00
2018-01-04T00:29:45.287Z,0.00
2018-01-04T00:30:45.291Z,0.00
2018-01-04T00:32:38.203Z,0.00
2018-01-04T00:33:38.225Z,0.00
2018-01-04T00:35:31.116Z,0.00
2018-01-04T00:36:31.138Z,0.00
2018-01-04T00:38:24.093Z,0.00
2018-01-04T00:39:24.042Z,0.00
2018-01-04T00:41:17.559Z,0.00
2018-01-04T00:42:17.510Z,0.00
2018-01-04T00:44:10.429Z,0.00
2018-01-04T00:45:10.430Z,0.00
2018-01-04T00:47:03.358Z,0.00
2018-01-04T00:48:03.360Z,0.00
2018-01-04T00:49:56.270Z,0.00
2018-01-04T00:50:56.287Z,0.00
2018-01-04T00:52:50.742Z,0.00
2018-01-04T00:53:50.660Z,0.00
2018-01-04T00:55:44.174Z,0.00
2018-01-04T00:56:44.190Z,0.00
2018-01-04T00:58:37.100Z,0.00
2018-01-04T00:59:37.116Z,0.00
2018-01-04T01:01:30.040Z,0.00
2018-01-04T01:02:30.022Z,0.00
2018-01-04T01:04:23.570Z,0.00
2018-01-04T01:05:23.585Z,0.00
2018-01-04T01:07:16.505Z,0.00
2018-01-04T01:08:16.506Z,0.00
2018-01-04T01:10:09.406Z,0.00
2018-01-04T01:11:09.423Z,0.00
2018-01-04T01:13:02.386Z,0.00
2018-01-04T01:14:02.375Z,0.00
2018-01-04T01:15:55.281Z,0.00
2018-01-04T01:16:55.296Z,0.00
2018-01-04T01:18:48.210Z,0.00
2018-01-04T01:19:48.212Z,0.00
2018-01-04T01:21:41.121Z,0.00
2018-01-04T01:22:41.121Z,0.00
2018-01-04T01:24:34.032Z,0.00
2018-01-04T01:25:34.032Z,0.00
2018-01-04T01:27:26.942Z,0.00
2018-01-04T01:28:26.958Z,0.00
2018-01-04T01:30:19.868Z,0.00
2018-01-04T01:31:19.869Z,0.00
2018-01-04T01:33:12.769Z,0.00
2018-01-04T01:34:12.785Z,0.00
2018-01-04T01:36:05.694Z,0.00
2018-01-04T01:37:05.691Z,0.00
2018-01-04T01:38:58.589Z,0.00
2018-01-04T01:39:58.604Z,0.00
2018-01-04T01:41:51.512Z,0.00
2018-01-04T01:42:51.521Z,0.00
2018-01-04T01:44:44.424Z,0.00
2018-01-04T01:45:44.436Z,0.00
2018-01-04T01:47:37.363Z,0.00
2018-01-04T01:48:37.353Z,0.00
2018-01-04T01:50:30.252Z,0.00
2018-01-04T01:51:30.268Z,0.00
2018-01-04T01:53:23.209Z,0.00
2018-01-04T01:54:23.186Z,0.00
2018-01-04T01:56:16.086Z,0.00
2018-01-04T01:57:16.099Z,0.00
2018-01-04T01:59:09.130Z,0.00
2018-01-04T02:00:09.143Z,0.00
2018-01-04T02:02:02.045Z,0.00
2018-01-04T02:03:02.056Z,0.00
2018-01-04T02:04:54.979Z,0.00
2018-01-04T02:05:54.968Z,0.00
2018-01-04T02:07:47.903Z,0.00
2018-01-04T02:08:47.885Z,0.00
2018-01-04T02:10:40.811Z,0.00
2018-01-04T02:11:40.805Z,0.00
2018-01-04T02:13:33.742Z,0.00
2018-01-04T02:14:33.719Z,0.00
2018-01-04T02:16:26.615Z,0.00
2018-01-04T02:17:26.623Z,0.00
2018-01-04T02:19:19.548Z,0.00
2018-01-04T02:20:19.541Z,0.00
2018-01-04T02:22:12.472Z,0.00
2018-01-04T02:23:12.463Z,0.00
2018-01-04T02:25:05.369Z,0.00
2018-01-04T02:26:05.399Z,0.00
2018-01-04T02:27:58.308Z,0.00
2018-01-04T02:28:58.289Z,0.00
2018-01-04T02:30:51.191Z,0.00
2018-01-04T02:31:51.208Z,0.00
2018-01-04T02:33:44.133Z,0.00
2018-01-04T02:34:44.120Z,0.00
2018-01-04T02:36:37.016Z,0.00
2018-01-04T02:37:37.027Z,0.00
2018-01-04T02:39:29.951Z,0.00
2018-01-04T02:40:29.945Z,0.00
2018-01-04T02:42:22.841Z,0.00
2018-01-04T02:43:22.859Z,0.00
2018-01-04T02:45:15.837Z,0.00
2018-01-04T02:46:15.784Z,0.00
2018-01-04T02:48:08.696Z,0.00
2018-01-04T02:49:08.736Z,0.00
2018-01-04T02:51:01.663Z,0.00
2018-01-04T02:52:01.925Z,0.00
2018-01-04T02:53:55.049Z,0.00
2018-01-04T02:54:54.993Z,0.00
2018-01-04T02:56:47.913Z,0.00
2018-01-04T02:57:47.904Z,0.00
2018-01-04T02:59:40.804Z,0.00
2018-01-04T03:00:40.818Z,0.00
2018-01-04T03:02:33.729Z,0.00
2018-01-04T03:03:33.891Z,0.00
2018-01-04T03:05:26.765Z,0.00
2018-01-04T03:06:26.846Z,0.00
2018-01-04T03:08:19.646Z,0.00
2018-01-04T03:09:19.758Z,0.00
2018-01-04T03:11:12.551Z,0.00
2018-01-04T03:12:12.593Z,0.00
2018-01-04T03:14:05.645Z,0.00
2018-01-04T03:15:05.651Z,0.00
2018-01-04T03:16:58.625Z,0.00
2018-01-04T03:17:58.565Z,0.00
2018-01-04T03:19:51.745Z,0.00
2018-01-04T03:20:51.720Z,0.00
2018-01-04T03:22:44.607Z,0.00
2018-01-04T03:23:44.603Z,0.00
2018-01-04T03:25:37.499Z,0.00
2018-01-04T03:26:37.516Z,0.00
2018-01-04T03:28:30.428Z,0.00
2018-01-04T03:29:30.430Z,0.00
2018-01-04T03:31:23.331Z,0.00
2018-01-04T03:32:23.346Z,0.00
2018-01-04T03:34:16.244Z,0.00
2018-01-04T03:35:16.258Z,0.00
2018-01-04T03:37:09.160Z,0.00
2018-01-04T03:38:09.168Z,0.00
2018-01-04T03:40:02.112Z,0.00
2018-01-04T03:41:02.086Z,0.00
2018-01-04T03:42:54.985Z,0.00
2018-01-04T03:43:54.994Z,0.00
2018-01-04T03:45:47.921Z,0.00
2018-01-04T03:46:47.909Z,0.00
2018-01-04T03:48:40.819Z,0.00
2018-01-04T03:49:40.834Z,0.00
2018-01-04T03:51:33.740Z,0.00
2018-01-04T03:52:33.747Z,0.00
2018-01-04T03:54:26.647Z,0.00
2018-01-04T03:55:26.656Z,0.00
2018-01-04T03:57:19.587Z,0.00
2018-01-04T03:58:19.569Z,0.00
2018-01-04T04:00:12.460Z,0.00
2018-01-04T04:01:12.476Z,0.00
2018-01-04T04:03:05.386Z,0.00
2018-01-04T04:04:05.386Z,0.00
2018-01-04T04:05:58.282Z,0.00
2018-01-04T04:06:58.297Z,0.00
2018-01-04T04:08:51.211Z,0.00
2018-01-04T04:09:51.213Z,0.00
2018-01-04T04:11:44.682Z,0.00
2018-01-04T04:12:44.135Z,0.00
2018-01-04T04:14:37.032Z,0.00
2018-01-04T04:15:37.045Z,0.00
2018-01-04T04:17:29.947Z,0.00
2018-01-04T04:18:29.963Z,0.00
2018-01-04T04:20:22.882Z,0.00
2018-01-04T04:21:22.871Z,0.00
2018-01-04T04:23:15.769Z,0.00
2018-01-04T04:24:15.782Z,0.00
2018-01-04T04:26:08.703Z,0.00
2018-01-04T04:27:08.702Z,0.00
2018-01-04T04:29:01.603Z,0.00
2018-01-04T04:30:01.611Z,0.00
2018-01-04T04:31:54.518Z,0.00
2018-01-04T04:32:54.526Z,0.00
2018-01-04T04:34:47.446Z,0.00
2018-01-04T04:35:47.432Z,0.00
2018-01-04T04:37:40.334Z,0.00
2018-01-04T04:38:40.347Z,0.00
2018-01-04T04:40:33.253Z,0.00
2018-01-04T04:41:33.263Z,0.00
2018-01-04T04:43:26.171Z,0.00
2018-01-04T04:44:26.172Z,0.00
2018-01-04T04:46:19.064Z,0.00
2018-01-04T04:47:19.080Z,0.00
2018-01-04T04:49:11.995Z,0.00
2018-01-04T04:50:11.987Z,0.00
2018-01-04T04:52:04.889Z,0.00
2018-01-04T04:53:04.904Z,0.00
2018-01-04T04:54:57.810Z,0.00
2018-01-04T04:55:57.814Z,0.00
2018-01-04T04:57:50.710Z,0.00
2018-01-04T04:58:50.725Z,0.00
2018-01-04T05:00:43.663Z,0.00
2018-01-04T05:01:43.641Z,0.00
2018-01-04T05:03:36.544Z,0.00
2018-01-04T05:04:36.559Z,0.00
2018-01-04T05:06:29.461Z,0.00
2018-01-04T05:07:29.469Z,0.00
2018-01-04T05:09:22.376Z,0.00
2018-01-04T05:10:22.379Z,0.00
2018-01-04T05:12:15.279Z,0.00
2018-01-04T05:13:15.288Z,0.00
2018-01-04T05:15:08.215Z,0.00
2018-01-04T05:16:08.203Z,0.00
2018-01-04T05:18:01.098Z,0.00
2018-01-04T05:19:01.113Z,0.00
2018-01-04T05:20:54.038Z,0.00
2018-01-04T05:21:54.028Z,0.00
2018-01-04T05:23:46.937Z,0.00
2018-01-04T05:24:46.937Z,0.00
2018-01-04T05:26:39.869Z,0.00
2018-01-04T05:27:39.856Z,0.00
2018-01-04T05:29:32.765Z,0.00
2018-01-04T05:30:32.787Z,0.00
2018-01-04T05:32:25.701Z,0.00
2018-01-04T05:33:25.687Z,0.00
2018-01-04T05:35:18.593Z,0.00
2018-01-04T05:36:18.599Z,0.00
2018-01-04T05:38:11.531Z,0.00
2018-01-04T05:39:11.512Z,0.00
2018-01-04T05:41:04.412Z,0.00
2018-01-04T05:42:04.426Z,0.00
2018-01-04T05:43:57.344Z,0.00
2018-01-04T05:44:57.331Z,0.00
2018-01-04T05:46:51.229Z,0.00
2018-01-04T05:47:51.243Z,0.00
2018-01-04T05:49:44.156Z,0.00
2018-01-04T05:50:44.160Z,0.00
2018-01-04T05:52:37.056Z,0.00
2018-01-04T05:53:37.070Z,0.00
2018-01-04T05:55:29.981Z,0.00
2018-01-04T05:56:29.978Z,0.00
2018-01-04T05:58:22.884Z,0.00
2018-01-04T05:59:22.894Z,0.00
2018-01-04T06:01:15.825Z,0.00
2018-01-04T06:02:15.808Z,0.00
2018-01-04T06:04:08.721Z,0.00
2018-01-04T06:05:08.730Z,0.00
2018-01-04T06:07:01.667Z,0.00
2018-01-04T06:08:01.650Z,0.00
2018-01-04T06:09:54.543Z,0.00
2018-01-04T06:10:54.555Z,0.00
2018-01-04T06:12:47.462Z,0.00
2018-01-04T06:13:47.467Z,0.00
2018-01-04T06:15:40.365Z,0.00
2018-01-04T06:16:40.382Z,0.00
2018-01-04T06:18:33.286Z,0.00
2018-01-04T06:19:33.290Z,0.00
2018-01-04T06:21:26.188Z,0.00
2018-01-04T06:22:26.203Z,0.00
2018-01-04T06:24:19.130Z,0.00
2018-01-04T06:25:19.122Z,0.00
2018-01-04T06:27:12.020Z,0.00
2018-01-04T06:28:12.037Z,0.00
2018-01-04T06:30:04.948Z,0.00
2018-01-04T06:31:04.952Z,0.00
2018-01-04T06:32:57.861Z,0.00
2018-01-04T06:33:57.860Z,0.00
2018-01-04T06:35:51.324Z,0.00
2018-01-04T06:36:50.777Z,0.00
2018-01-04T06:38:43.699Z,0.00
2018-01-04T06:39:43.691Z,0.00
2018-01-04T06:41:36.589Z,0.00
2018-01-04T06:42:36.605Z,0.00
2018-01-04T06:44:29.512Z,0.00
2018-01-04T06:45:29.553Z,0.00
2018-01-04T06:47:22.406Z,0.00
2018-01-04T06:48:22.425Z,0.00
2018-01-04T06:50:15.339Z,0.00
2018-01-04T06:51:15.336Z,0.00
2018-01-04T06:53:08.234Z,0.00
2018-01-04T06:54:08.246Z,0.00
2018-01-04T06:56:01.171Z,0.00
2018-01-04T06:57:01.166Z,0.00
2018-01-04T06:58:54.088Z,0.00
2018-01-04T06:59:54.087Z,0.00
2018-01-04T07:01:47.035Z,0.00
2018-01-04T07:02:46.996Z,0.00
2018-01-04T07:04:39.892Z,0.00
2018-01-04T07:05:39.913Z,0.00
2018-01-04T07:07:32.847Z,4.00
2018-01-04T07:08:32.828Z,0.00
2018-01-04T07:10:25.737Z,0.00
2018-01-04T07:11:25.738Z,4.00
2018-01-04T07:13:18.650Z,4.00
2018-01-04T07:14:18.651Z,4.00
2018-01-04T07:16:12.064Z,4.00
2018-01-04T07:17:12.067Z,4.00
2018-01-04T07:19:04.961Z,4.00
2018-01-04T07:20:04.978Z,8.00
2018-01-04T07:21:57.894Z,8.00
2018-01-04T07:22:57.894Z,12.00
2018-01-04T07:24:50.794Z,12.00
2018-01-04T07:25:50.805Z,12.00
2018-01-04T07:27:43.723Z,12.00
2018-01-04T07:28:43.725Z,12.00
2018-01-04T07:30:36.620Z,12.00
2018-01-04T07:31:36.637Z,20.00
2018-01-04T07:33:29.542Z,24.00
2018-01-04T07:34:29.540Z,32.00
2018-01-04T07:36:22.450Z,40.00
2018-01-04T07:37:22.465Z,40.00
2018-01-04T07:39:15.371Z,48.00
2018-01-04T07:40:15.378Z,52.00
2018-01-04T07:42:08.275Z,60.00
2018-01-04T07:43:08.295Z,60.00
2018-01-04T07:45:01.214Z,76.00
2018-01-04T07:46:01.215Z,88.00
2018-01-04T07:47:54.110Z,108.00
2018-01-04T07:48:54.130Z,124.00
2018-01-04T07:50:47.053Z,144.00
2018-01-04T07:51:47.048Z,148.00
2018-01-04T07:53:39.951Z,124.00
2018-01-04T07:54:39.968Z,112.00
2018-01-04T07:56:32.874Z,116.00
2018-01-04T07:57:32.880Z,104.00
2018-01-04T07:59:25.788Z,104.00
2018-01-04T08:00:25.795Z,100.00
2018-01-04T08:02:18.712Z,152.00
2018-01-04T08:03:18.712Z,184.00
2018-01-04T08:05:11.609Z,164.00
2018-01-04T08:06:11.627Z,172.00
2018-01-04T08:08:04.526Z,212.00
2018-01-04T08:09:04.542Z,204.00
2018-01-04T08:10:57.444Z,192.00
2018-01-04T08:11:57.452Z,200.00
2018-01-04T08:13:50.360Z,224.00
2018-01-04T08:14:50.364Z,272.00
2018-01-04T08:16:43.285Z,336.00
2018-01-04T08:17:43.279Z,332.00
2018-01-04T08:19:36.198Z,328.00
2018-01-04T08:20:36.186Z,340.00
2018-01-04T08:22:29.110Z,352.00
2018-01-04T08:23:29.105Z,384.00
2018-01-04T08:25:22.010Z,392.00
2018-01-04T08:26:22.014Z,368.00
2018-01-04T08:28:14.921Z,368.00
2018-01-04T08:29:14.923Z,392.00
2018-01-04T08:31:07.843Z,360.00
2018-01-04T08:32:07.835Z,368.00
2018-01-04T08:34:00.738Z,424.00
2018-01-04T08:35:00.752Z,400.00
2018-01-04T08:36:53.696Z,400.00
2018-01-04T08:37:53.665Z,384.00
2018-01-04T08:39:46.565Z,404.00
2018-01-04T08:40:46.579Z,448.00
2018-01-04T08:42:39.498Z,368.00
2018-01-04T08:43:39.499Z,296.00
2018-01-04T08:45:32.403Z,228.00
2018-01-04T08:46:32.408Z,204.00
2018-01-04T08:48:25.322Z,212.00
2018-01-04T08:49:25.332Z,264.00
2018-01-04T08:51:18.244Z,368.00
2018-01-04T08:52:18.246Z,292.00
2018-01-04T08:54:11.139Z,308.00
2018-01-04T08:55:11.166Z,356.00
2018-01-04T08:57:04.068Z,412.00
2018-01-04T08:58:04.073Z,360.00
2018-01-04T08:59:56.963Z,420.00
2018-01-04T09:00:57.004Z,388.00
2018-01-04T09:02:49.889Z,496.00
2018-01-04T09:03:49.902Z,516.00
2018-01-04T09:05:42.826Z,620.00
2018-01-04T09:06:42.820Z,648.00
2018-01-04T09:08:35.720Z,616.00
2018-01-04T09:09:35.732Z,544.00
2018-01-04T09:11:28.648Z,636.00
2018-01-04T09:12:28.665Z,580.00
2018-01-04T09:14:21.543Z,500.00
2018-01-04T09:15:21.572Z,536.00
2018-01-04T09:17:14.462Z,540.00
2018-01-04T09:18:14.476Z,472.00
2018-01-04T09:20:07.393Z,348.00
2018-01-04T09:21:07.399Z,428.00
2018-01-04T09:23:00.296Z,468.00
2018-01-04T09:24:00.310Z,496.00
2018-01-04T09:25:53.259Z,576.00
2018-01-04T09:26:53.262Z,716.00
2018-01-04T09:28:46.181Z,860.00
2018-01-04T09:29:46.197Z,1016.00
2018-01-04T09:31:39.112Z,708.00
2018-01-04T09:32:39.109Z,620.00
2018-01-04T09:34:32.009Z,756.00
2018-01-04T09:35:32.025Z,776.00
2018-01-04T09:37:24.959Z,676.00
2018-01-04T09:38:24.938Z,704.00
2018-01-04T09:40:17.840Z,648.00
2018-01-04T09:41:17.858Z,660.00
2018-01-04T09:43:10.766Z,716.00
2018-01-04T09:44:10.766Z,616.00
2018-01-04T09:46:03.663Z,592.00
2018-01-04T09:47:03.676Z,608.00
2018-01-04T09:48:56.606Z,516.00
2018-01-04T09:49:56.597Z,656.00
2018-01-04T09:51:49.497Z,528.00
2018-01-04T09:52:49.512Z,540.00
2018-01-04T09:54:42.445Z,860.00
2018-01-04T09:55:42.430Z,868.00
2018-01-04T09:57:35.330Z,912.00
2018-01-04T09:58:35.344Z,1052.00
2018-01-04T10:00:28.278Z,984.00
2018-01-04T10:01:28.261Z,932.00
2018-01-04T10:03:21.156Z,960.00
2018-01-04T10:04:21.171Z,880.00
2018-01-04T10:06:14.097Z,940.00
2018-01-04T10:07:14.086Z,736.00
2018-01-04T10:09:06.982Z,596.00
2018-01-04T10:10:06.999Z,656.00
2018-01-04T10:11:59.930Z,452.00
2018-01-04T10:12:59.921Z,376.00
2018-01-04T10:14:52.822Z,400.00
2018-01-04T10:15:52.834Z,380.00
2018-01-04T10:17:45.752Z,332.00
2018-01-04T10:18:45.752Z,300.00
2018-01-04T10:20:38.649Z,228.00
2018-01-04T10:21:38.662Z,204.00
2018-01-04T10:23:31.568Z,256.00
2018-01-04T10:24:31.576Z,244.00
2018-01-04T10:26:24.488Z,352.00
2018-01-04T10:27:24.490Z,564.00
2018-01-04T10:29:17.398Z,900.00
2018-01-04T10:30:17.407Z,728.00
2018-01-04T10:32:10.312Z,616.00
2018-01-04T10:33:10.318Z,656.00
2018-01-04T10:35:03.245Z,676.00
2018-01-04T10:36:03.242Z,712.00
2018-01-04T10:37:56.133Z,812.00
2018-01-04T10:38:56.153Z,868.00
2018-01-04T10:40:49.067Z,728.00
2018-01-04T10:41:49.067Z,724.00
2018-01-04T10:43:41.961Z,680.00
2018-01-04T10:44:41.976Z,660.00
2018-01-04T10:46:34.897Z,624.00
2018-01-04T10:47:34.893Z,672.00
2018-01-04T10:49:27.795Z,1380.00
2018-01-04T10:50:27.811Z,1660.00
2018-01-04T10:52:20.722Z,1296.00
2018-01-04T10:53:20.730Z,1216.00
2018-01-04T10:55:13.640Z,1036.00
2018-01-04T10:56:13.644Z,1040.00
2018-01-04T10:58:06.554Z,848.00
2018-01-04T10:59:06.568Z,560.00
2018-01-04T11:00:59.469Z,696.00
2018-01-04T11:01:59.486Z,896.00
2018-01-04T11:03:52.397Z,792.00
2018-01-04T11:04:52.409Z,792.00
2018-01-04T11:06:45.310Z,812.00
2018-01-04T11:07:45.321Z,888.00
2018-01-04T11:09:38.246Z,740.00
2018-01-04T11:10:38.236Z,568.00
2018-01-04T11:12:31.171Z,624.00
2018-01-04T11:13:31.157Z,648.00
2018-01-04T11:15:24.058Z,1184.00
2018-01-04T11:16:24.077Z,1280.00
2018-01-04T11:18:17.022Z,1416.00
2018-01-04T11:19:16.995Z,1296.00
2018-01-04T11:21:09.918Z,908.00
2018-01-04T11:22:09.918Z,752.00
2018-01-04T11:24:02.835Z,564.00
2018-01-04T11:25:02.830Z,480.00
2018-01-04T11:26:55.742Z,352.00
2018-01-04T11:27:55.753Z,460.00
2018-01-04T11:29:48.675Z,468.00
2018-01-04T11:30:48.670Z,508.00
2018-01-04T11:32:41.566Z,460.00
2018-01-04T11:33:41.581Z,716.00
2018-01-04T11:35:34.510Z,580.00
2018-01-04T11:36:34.517Z,400.00
2018-01-04T11:38:27.412Z,760.00
2018-01-04T11:39:27.436Z,540.00
2018-01-04T11:41:20.355Z,272.00
2018-01-04T11:42:20.347Z,356.00
2018-01-04T11:44:13.262Z,712.00
2018-01-04T11:45:13.306Z,836.00
2018-01-04T11:47:06.192Z,740.00
2018-01-04T11:48:06.193Z,720.00
2018-01-04T11:49:59.094Z,548.00
2018-01-04T11:50:59.116Z,584.00
2018-01-04T11:52:52.028Z,796.00
2018-01-04T11:53:52.040Z,724.00
2018-01-04T11:55:44.941Z,1288.00
2018-01-04T11:56:44.966Z,1128.00
2018-01-04T11:58:37.872Z,1104.00
2018-01-04T11:59:37.865Z,1400.00
2018-01-04T12:01:30.769Z,1340.00
2018-01-04T12:02:30.780Z,1096.00
2018-01-04T12:04:23.700Z,2104.00
2018-01-04T12:05:23.713Z,1840.00
2018-01-04T12:07:16.616Z,1372.00
2018-01-04T12:08:16.625Z,1172.00
2018-01-04T12:10:09.554Z,1016.00
2018-01-04T12:11:09.571Z,884.00
2018-01-04T12:13:02.495Z,872.00
2018-01-04T12:14:02.496Z,772.00
2018-01-04T12:15:55.406Z,824.00
2018-01-04T12:16:55.408Z,900.00
2018-01-04T12:18:48.417Z,1044.00
2018-01-04T12:19:48.345Z,1092.00
2018-01-04T12:21:41.263Z,920.00
2018-01-04T12:22:41.285Z,1012.00
2018-01-04T12:24:34.203Z,1040.00
2018-01-04T12:25:34.208Z,1064.00
2018-01-04T12:27:27.103Z,944.00
2018-01-04T12:28:27.121Z,916.00
2018-01-04T12:30:20.031Z,932.00
2018-01-04T12:31:20.037Z,892.00
2018-01-04T12:33:12.957Z,772.00
2018-01-04T12:34:12.973Z,692.00
2018-01-04T12:36:05.893Z,776.00
2018-01-04T12:37:05.883Z,900.00
2018-01-04T12:38:58.790Z,860.00
2018-01-04T12:39:58.804Z,860.00
2018-01-04T12:41:51.768Z,708.00
2018-01-04T12:42:51.740Z,640.00
2018-01-04T12:44:44.661Z,744.00
2018-01-04T12:45:44.674Z,908.00
2018-01-04T12:47:37.594Z,908.00
2018-01-04T12:48:37.624Z,984.00
2018-01-04T12:50:30.512Z,1144.00
2018-01-04T12:51:30.525Z,1236.00
2018-01-04T12:53:23.436Z,1428.00
2018-01-04T12:54:23.440Z,1276.00
2018-01-04T12:56:16.343Z,1312.00
2018-01-04T12:57:16.360Z,1352.00
2018-01-04T12:59:09.313Z,1272.00
2018-01-04T13:00:09.302Z,1076.00
2018-01-04T13:02:02.214Z,688.00
2018-01-04T13:03:02.232Z,572.00
2018-01-04T13:04:55.145Z,516.00
2018-01-04T13:05:55.154Z,516.00
2018-01-04T13:07:48.048Z,604.00
2018-01-04T13:08:48.070Z,664.00
2018-01-04T13:10:41.019Z,848.00
2018-01-04T13:11:41.016Z,944.00
2018-01-04T13:13:33.932Z,1016.00
2018-01-04T13:14:33.928Z,980.00
2018-01-04T13:16:26.926Z,812.00
2018-01-04T13:17:26.980Z,760.00
2018-01-04T13:19:19.789Z,768.00
2018-01-04T13:20:19.794Z,820.00
2018-01-04T13:22:13.268Z,932.00
2018-01-04T13:23:13.126Z,980.00
2018-01-04T13:25:06.029Z,808.00
2018-01-04T13:26:06.048Z,620.00
2018-01-04T13:27:58.978Z,416.00
2018-01-04T13:28:58.989Z,428.00
2018-01-04T13:30:52.102Z,624.00
2018-01-04T13:31:51.979Z,756.00
2018-01-04T13:33:46.508Z,852.00
2018-01-04T13:34:46.506Z,948.00
2018-01-04T13:36:39.424Z,608.00
2018-01-04T13:37:39.440Z,588.00
2018-01-04T13:39:32.368Z,1192.00
2018-01-04T13:40:32.353Z,2296.00
2018-01-04T13:42:25.259Z,3076.00
2018-01-04T13:43:25.266Z,2072.00
2018-01-04T13:45:18.177Z,1864.00
2018-01-04T13:46:18.196Z,1688.00
2018-01-04T13:48:11.134Z,1200.00
2018-01-04T13:49:11.138Z,1196.00
2018-01-04T13:51:04.235Z,1300.00
2018-01-04T13:52:04.067Z,1160.00
2018-01-04T13:53:56.981Z,1172.00
2018-01-04T13:54:56.986Z,1284.00
2018-01-04T13:56:50.203Z,1128.00
2018-01-04T13:57:50.206Z,1104.00
2018-01-04T13:59:43.133Z,888.00
2018-01-04T14:00:43.125Z,872.00
2018-01-04T14:02:36.032Z,712.00
2018-01-04T14:03:36.048Z,660.00
2018-01-04T14:05:29.903Z,716.00
2018-01-04T14:06:29.001Z,844.00
2018-01-04T14:08:21.869Z,864.00
2018-01-04T14:09:21.878Z,884.00
2018-01-04T14:11:15.408Z,616.00
2018-01-04T14:12:14.814Z,520.00
2018-01-04T14:14:07.723Z,556.00
2018-01-04T14:15:07.720Z,472.00
2018-01-04T14:17:00.973Z,376.00
2018-01-04T14:18:00.635Z,324.00
2018-01-04T14:19:53.784Z,288.00
2018-01-04T14:20:53.554Z,300.00
2018-01-04T14:22:46.637Z,332.00
2018-01-04T14:23:46.631Z,404.00
2018-01-04T14:25:39.536Z,412.00
2018-01-04T14:26:39.552Z,416.00
2018-01-04T14:28:32.500Z,496.00
2018-01-04T14:29:32.548Z,544.00
2018-01-04T14:31:25.416Z,568.00
2018-01-04T14:32:25.433Z,560.00
2018-01-04T14:34:18.711Z,544.00
2018-01-04T14:35:18.360Z,520.00
2018-01-04T14:37:11.266Z,492.00
2018-01-04T14:38:11.277Z,480.00
2018-01-04T14:40:04.253Z,460.00
2018-01-04T14:41:04.188Z,480.00
2018-01-04T14:42:57.099Z,456.00
2018-01-04T14:43:57.117Z,388.00
2018-01-04T14:45:50.029Z,328.00
2018-01-04T14:46:50.029Z,328.00
2018-01-04T14:48:42.962Z,292.00
2018-01-04T14:49:42.946Z,280.00
2018-01-04T14:51:35.844Z,252.00
2018-01-04T14:52:35.866Z,240.00
2018-01-04T14:54:28.789Z,220.00
2018-01-04T14:55:28.780Z,212.00
2018-01-04T14:57:21.689Z,200.00
2018-01-04T14:58:21.703Z,196.00
2018-01-04T15:00:14.626Z,168.00
2018-01-04T15:01:14.620Z,156.00
2018-01-04T15:03:07.520Z,136.00
2018-01-04T15:04:07.533Z,124.00
2018-01-04T15:06:00.446Z,116.00
2018-01-04T15:07:00.448Z,108.00
2018-01-04T15:08:53.351Z,96.00
2018-01-04T15:09:53.365Z,96.00
2018-01-04T15:11:46.281Z,76.00
2018-01-04T15:12:46.283Z,68.00
2018-01-04T15:14:39.199Z,72.00
2018-01-04T15:15:39.196Z,64.00
2018-01-04T15:17:32.112Z,56.00
2018-01-04T15:18:32.117Z,52.00
2018-01-04T15:20:25.018Z,40.00
2018-01-04T15:21:25.031Z,36.00
2018-01-04T15:23:17.940Z,32.00
2018-01-04T15:24:17.938Z,32.00
2018-01-04T15:26:10.845Z,28.00
2018-01-04T15:27:10.865Z,24.00
2018-01-04T15:29:03.783Z,20.00
2018-01-04T15:30:03.773Z,16.00
2018-01-04T15:31:56.684Z,12.00
2018-01-04T15:32:56.704Z,12.00
2018-01-04T15:34:49.615Z,8.00
2018-01-04T15:35:49.622Z,8.00
2018-01-04T15:37:42.657Z,4.00
2018-01-04T15:38:42.645Z,4.00
2018-01-04T15:40:35.561Z,4.00
2018-01-04T15:41:35.557Z,4.00
2018-01-04T15:43:29.026Z,0.00
2018-01-04T15:44:28.943Z,0.00
2018-01-04T15:46:21.861Z,4.00
2018-01-04T15:47:21.864Z,4.00
2018-01-04T15:49:14.769Z,0.00
2018-01-04T15:50:14.787Z,0.00
2018-01-04T15:52:07.716Z,0.00
2018-01-04T15:53:07.709Z,0.00
2018-01-04T15:55:00.782Z,0.00
2018-01-04T15:56:00.665Z,0.00
2018-01-04T15:57:53.567Z,0.00
2018-01-04T15:58:53.563Z,0.00
2018-01-04T16:00:46.476Z,0.00
2018-01-04T16:01:46.523Z,0.00
2018-01-04T16:03:39.989Z,0.00
2018-01-04T16:04:39.414Z,0.00
2018-01-04T16:06:44.182Z,0.00
2018-01-04T16:07:44.039Z,0.00
2018-01-04T16:09:37.464Z,0.00
2018-01-04T16:10:37.487Z,0.00
2018-01-04T16:12:30.442Z,0.00
2018-01-04T16:13:30.444Z,0.00
2018-01-04T16:15:23.376Z,0.00
2018-01-04T16:16:23.372Z,0.00
2018-01-04T16:18:16.271Z,0.00
2018-01-04T16:19:16.293Z,0.00
2018-01-04T16:21:09.216Z,0.00
2018-01-04T16:22:09.212Z,0.00
2018-01-04T16:24:02.272Z,0.00
2018-01-04T16:25:02.184Z,0.00
2018-01-04T16:26:56.698Z,0.00
2018-01-04T16:27:56.666Z,0.00
2018-01-04T16:29:49.584Z,0.00
2018-01-04T16:30:49.601Z,0.00
2018-01-04T16:32:42.553Z,0.00
2018-01-04T16:33:42.520Z,0.00
2018-01-04T16:35:35.416Z,0.00
2018-01-04T16:36:35.437Z,0.00
2018-01-04T16:38:28.369Z,0.00
2018-01-04T16:39:28.354Z,0.00
2018-01-04T16:41:21.288Z,0.00
2018-01-04T16:42:21.279Z,0.00
2018-01-04T16:44:14.206Z,0.00
2018-01-04T16:45:14.206Z,0.00
2018-01-04T16:47:07.113Z,0.00
2018-01-04T16:48:07.123Z,0.00
2018-01-04T16:50:00.052Z,0.00
2018-01-04T16:51:00.040Z,0.00
2018-01-04T16:52:53.022Z,0.00
2018-01-04T16:53:52.952Z,0.00
2018-01-04T16:55:45.852Z,0.00
2018-01-04T16:56:45.872Z,0.00
2018-01-04T16:58:38.783Z,0.00
2018-01-04T16:59:38.785Z,0.00
2018-01-04T17:01:31.705Z,0.00
2018-01-04T17:02:31.705Z,0.00
2018-01-04T17:04:24.603Z,0.00
2018-01-04T17:05:24.618Z,0.00
2018-01-04T17:07:17.530Z,0.00
2018-01-04T17:08:17.535Z,0.00
2018-01-04T17:10:10.454Z,0.00
2018-01-04T17:11:10.467Z,0.00
2018-01-04T17:13:03.393Z,0.00
2018-01-04T17:14:03.380Z,0.00
2018-01-04T17:15:56.304Z,0.00
2018-01-04T17:16:56.330Z,0.00
2018-01-04T17:18:49.243Z,0.00
2018-01-04T17:19:49.246Z,0.00
2018-01-04T17:21:42.196Z,0.00
2018-01-04T17:22:42.184Z,0.00
2018-01-04T17:24:35.148Z,0.00
2018-01-04T17:25:35.139Z,0.00
2018-01-04T17:27:28.048Z,0.00
2018-01-04T17:28:28.063Z,0.00
2018-01-04T17:30:21.005Z,0.00
2018-01-04T17:31:21.004Z,0.00
2018-01-04T17:33:13.905Z,0.00
2018-01-04T17:34:13.924Z,0.00
2018-01-04T17:36:06.833Z,0.00
2018-01-04T17:38:22.809Z,0.00
2018-01-04T17:39:19.768Z,0.00
2018-01-04T17:41:12.795Z,0.00
2018-01-04T17:42:12.700Z,0.00
2018-01-04T17:44:05.599Z,0.00
2018-01-04T17:45:05.617Z,0.00
2018-01-04T17:46:58.632Z,0.00
2018-01-04T17:47:58.547Z,0.00
2018-01-04T17:49:51.445Z,0.00
2018-01-04T17:50:51.463Z,0.00
2018-01-04T17:52:44.401Z,0.00
2018-01-04T17:53:44.391Z,0.00
2018-01-04T17:55:37.300Z,0.00
2018-01-04T17:56:37.318Z,0.00
2018-01-04T17:58:30.307Z,0.00
2018-01-04T17:59:30.247Z,0.00
2018-01-04T18:01:23.157Z,0.00
2018-01-04T18:02:23.171Z,0.00
2018-01-04T18:04:16.090Z,0.00
2018-01-04T18:05:16.085Z,0.00
2018-01-04T18:07:09.003Z,0.00
2018-01-04T18:08:09.022Z,0.00
2018-01-04T18:10:01.932Z,0.00
2018-01-04T18:11:01.937Z,0.00
2018-01-04T18:12:54.858Z,0.00
2018-01-04T18:13:54.879Z,0.00
2018-01-04T18:15:47.804Z,0.00
2018-01-04T18:16:47.795Z,0.00
2018-01-04T18:18:40.695Z,0.00
2018-01-04T18:19:40.715Z,0.00
2018-01-04T18:21:33.648Z,0.00
2018-01-04T18:22:33.636Z,0.00
2018-01-04T18:24:26.534Z,0.00
2018-01-04T18:28:11.074Z,0.00
2018-01-04T18:29:11.079Z,0.00
2018-01-04T18:31:03.980Z,0.00
2018-01-04T18:32:04.003Z,0.00
2018-01-04T18:33:56.939Z,0.00
2018-01-04T18:34:56.933Z,0.00
2018-01-04T18:36:49.838Z,0.00
2018-01-04T18:37:49.851Z,0.00
2018-01-04T18:39:42.786Z,0.00
2018-01-04T18:40:42.796Z,0.00